Time;durP1;ratioP1;P1;durP2;ratioP2;P2;SDS_P1;SDS_P2;PMS_P1;PMS_P2;Temp;Humidity;BMP_temperature;BMP_pressure;BME280_temperature;BME280_humidity;BME280_pressure;Samples;Min_cycle;Max_cycle;Signal;HPM_P1;HPM_P2
2022/01/23 00:01:21;;;;;;;21.70;17.17;;;5.60;57.30;;;;;;20704;6841;117968;-82
2022/01/23 00:03:47;;;;;;;21.80;19.45;;;5.60;56.90;;;;;;20535;6841;308638;-82
2022/01/23 00:06:12;;;;;;;27.23;17.97;;;5.80;57.30;;;;;;20753;6841;117416;-82
2022/01/23 00:08:38;;;;;;;19.27;16.33;;;5.80;56.90;;;;;;20703;6843;117438;-84
2022/01/23 00:11:04;;;;;;;20.37;15.80;;;5.60;57.00;;;;;;20711;6843;118474;-86
2022/01/23 00:17:12;;;;;;;23.83;19.90;;;5.50;57.30;;;;;;20543;6837;308033;-83
2022/01/23 00:18:41;;;;;;;21.97;18.20;;;5.90;56.30;;;;;;20754;6829;117936;-82
2022/01/23 00:21:06;;;;;;;24.67;17.87;;;5.90;56.30;;;;;;20773;6830;118468;-82
2022/01/23 00:31:38;;;;;;;23.50;20.45;;;5.70;56.90;;;;;;20558;6830;308453;-82
2022/01/23 00:34:01;;;;;;;24.07;20.73;;;5.90;56.90;;;;;;20556;6830;278633;-83
2022/01/23 00:36:27;;;;;;;18.93;15.77;;;6.10;57.00;;;;;;20740;6830;117945;-83
2022/01/23 00:38:52;;;;;;;23.67;21.07;;;6.10;56.00;;;;;;20552;6830;311688;-83
2022/01/23 00:41:18;;;;;;;23.20;20.77;;;6.10;56.10;;;;;;20557;6830;278560;-82
2022/01/23 00:43:45;;;;;;;22.60;17.75;;;6.20;55.50;;;;;;20768;6830;117451;-83
2022/01/23 00:51:16;;;;;;;22.77;16.23;;;5.60;56.30;;;;;;20174;6830;119813;-83
2022/01/23 00:53:43;;;;;;;21.52;16.25;;;5.20;57.20;;;;;;20777;6830;117475;-82
2022/01/23 00:56:08;;;;;;;19.70;15.47;;;5.20;57.20;;;;;;20775;6830;117353;-83
2022/01/23 00:58:35;;;;;;;24.00;16.37;;;5.10;57.50;;;;;;20747;6830;117881;-83
2022/01/23 01:01:01;;;;;;;23.13;19.83;;;5.00;57.70;;;;;;20554;6830;282758;-83
2022/01/23 01:03:26;;;;;;;23.10;20.07;;;5.20;58.00;;;;;;20552;6830;312319;-83
2022/01/23 01:05:52;;;;;;;20.52;16.08;;;5.60;57.50;;;;;;20763;6830;117347;-82
2022/01/23 01:08:18;;;;;;;20.47;15.43;;;5.60;56.90;;;;;;20762;6830;117898;-83
2022/01/23 01:10:56;;;;;;;17.30;14.63;;;5.50;57.00;;;;;;20743;6830;121186;-83
2022/01/23 01:13:12;;;;;;;23.40;20.37;;;5.40;57.70;;;;;;20511;6830;341165;-82
2022/01/23 01:15:55;;;;;;;22.50;17.27;;;5.40;57.70;;;;;;20755;6830;117367;-83
2022/01/23 01:31:57;;;;;;;21.70;15.13;;;5.10;57.80;;;;;;20770;6829;117244;-83
2022/01/23 01:34:30;;;;;;;21.92;15.73;;;5.00;58.00;;;;;;20753;6830;117302;-82
2022/01/23 01:39:12;;;;;;;23.27;19.80;;;5.50;57.70;;;;;;20528;6845;279212;-83
2022/01/23 01:41:38;;;;;;;23.08;20.00;;;5.50;57.70;;;;;;20549;6841;306776;-82
2022/01/23 01:44:03;;;;;;;22.23;17.58;;;5.90;56.70;;;;;;20768;6845;117428;-83
2022/01/23 01:46:29;;;;;;;17.87;14.23;;;5.90;56.30;;;;;;20720;6841;119177;-83
2022/01/23 01:48:55;;;;;;;19.67;15.43;;;5.40;56.90;;;;;;20725;6845;117636;-82
2022/01/23 01:51:21;;;;;;;20.80;15.57;;;5.40;56.90;;;;;;20735;6841;117490;-83
2022/01/23 01:53:56;;;;;;;22.95;19.15;;;5.30;57.30;;;;;;20533;6841;278512;-83
2022/01/23 01:56:12;;;;;;;24.00;16.77;;;5.40;57.40;;;;;;20646;6845;119060;-83
2022/01/23 02:09:33;;;;;;;23.60;17.57;;;6.00;55.80;;;;;;20743;6837;117406;-82
2022/01/23 02:22:42;;;;;;;24.27;17.67;;;6.20;55.00;;;;;;20716;6830;118223;-83
2022/01/23 02:52:32;;;;;;;23.00;15.20;;;5.50;56.30;;;;;;20744;6841;119042;-82
2022/01/23 02:54:55;;;;;;;21.17;16.00;;;5.30;57.00;;;;;;20675;6841;117635;-83
2022/01/23 02:57:11;;;;;;;23.30;16.27;;;5.30;57.00;;;;;;20699;6845;118698;-85
2022/01/23 02:59:37;;;;;;;22.03;15.87;;;5.10;57.20;;;;;;20740;6841;117861;-82
2022/01/23 03:02:08;;;;;;;23.53;19.50;;;5.10;57.40;;;;;;20533;6841;287033;-87
2022/01/23 03:04:27;;;;;;;24.83;17.13;;;5.30;57.80;;;;;;20736;6841;126286;-81
2022/01/23 03:07:08;;;;;;;20.57;15.70;;;5.30;57.20;;;;;;20788;6841;116632;-82
2022/01/23 03:25:16;;;;;;;21.60;14.47;;;5.50;56.30;;;;;;20755;6841;118732;-82
2022/01/23 03:29:56;;;;;;;25.25;20.30;;;5.50;57.10;;;;;;20523;6843;312257;-83
2022/01/23 03:32:35;;;;;;;25.80;20.70;;;5.80;56.40;;;;;;20512;6843;309235;-82
2022/01/23 03:34:54;;;;;;;24.97;20.10;;;6.20;55.60;;;;;;20519;6837;307376;-82
2022/01/23 03:37:20;;;;;;;23.50;16.50;;;6.40;54.70;;;;;;20780;6830;117468;-82
2022/01/23 03:39:47;;;;;;;24.17;19.60;;;6.30;54.80;;;;;;20566;6830;307580;-82
2022/01/23 03:42:13;;;;;;;20.20;15.50;;;6.20;54.70;;;;;;20772;6830;117988;-82
2022/01/23 03:44:43;;;;;;;21.23;15.73;;;6.20;54.70;;;;;;20770;6830;117429;-82
2022/01/23 03:49:50;;;;;;;19.97;14.87;;;5.70;55.70;;;;;;20784;6830;116446;-82
2022/01/23 03:52:15;;;;;;;21.83;18.27;;;5.50;56.10;;;;;;20566;6830;282684;-82
2022/01/23 03:54:40;;;;;;;21.23;18.90;;;5.70;56.40;;;;;;20541;6829;284935;-81
2022/01/23 03:57:06;;;;;;;17.58;14.82;;;6.00;55.70;;;;;;20782;6830;117243;-82
2022/01/23 03:59:32;;;;;;;20.03;15.00;;;5.80;56.30;;;;;;20740;6845;117327;-83
2022/01/23 04:01:58;;;;;;;19.60;14.93;;;5.80;55.60;;;;;;20740;6841;117833;-83
2022/01/23 04:04:43;;;;;;;18.47;15.17;;;5.70;56.40;;;;;;20723;6841;117396;-83
2022/01/23 04:06:53;;;;;;;20.67;17.77;;;5.50;56.20;;;;;;20394;6841;308395;-83
2022/01/23 04:09:19;;;;;;;19.17;14.63;;;5.70;56.40;;;;;;20742;6841;118962;-82
2022/01/23 04:11:46;;;;;;;19.92;15.50;;;5.60;56.70;;;;;;20746;6841;118086;-82
2022/01/23 04:14:13;;;;;;;23.27;18.70;;;5.60;56.20;;;;;;20513;6841;315268;-82
2022/01/23 04:19:41;;;;;;;20.10;15.23;;;5.80;56.00;;;;;;20765;6837;117344;-83
2022/01/23 04:59:33;;;;;;;20.00;15.33;;;6.00;56.10;;;;;;20791;6830;116396;-82
2022/01/23 04:59:53;;;;;;;21.80;15.13;;;5.70;56.40;;;;;;20791;6830;117189;-81
2022/01/23 05:05:02;;;;;;;19.67;15.20;;;5.30;57.10;;;;;;20773;6829;121266;-82
2022/01/23 05:07:29;;;;;;;20.93;15.70;;;5.20;57.40;;;;;;20728;6844;117355;-83
2022/01/23 05:09:53;;;;;;;22.25;15.35;;;5.10;57.60;;;;;;20732;6841;117706;-84
2022/01/23 05:12:25;;;;;;;21.70;15.85;;;5.00;57.70;;;;;;20749;6841;117444;-81
2022/01/23 05:14:46;;;;;;;19.53;14.43;;;5.00;57.90;;;;;;20725;6841;117502;-82
2022/01/23 05:17:13;;;;;;;19.53;15.10;;;4.90;58.00;;;;;;20725;6843;117747;-82
2022/01/23 05:19:37;;;;;;;21.30;16.20;;;4.90;58.30;;;;;;20722;6843;117968;-82
2022/01/23 05:22:26;;;;;;;24.67;15.97;;;4.80;58.40;;;;;;20742;6837;117337;-82
2022/01/23 05:24:51;;;;;;;25.77;16.97;;;4.80;58.50;;;;;;20731;6830;120470;-82
2022/01/23 05:27:10;;;;;;;29.33;21.33;;;4.70;58.50;;;;;;20528;6830;307347;-82
2022/01/23 05:29:36;;;;;;;28.00;21.10;;;5.00;59.90;;;;;;20552;6830;289618;-81
2022/01/23 05:32:01;;;;;;;29.17;21.90;;;5.40;58.80;;;;;;20546;6830;337751;-82
2022/01/23 05:34:27;;;;;;;25.17;17.20;;;5.70;57.90;;;;;;20733;6830;121466;-82
2022/01/23 05:36:52;;;;;;;25.37;19.73;;;5.70;57.40;;;;;;20549;6830;279916;-82
2022/01/23 05:39:21;;;;;;;22.17;16.53;;;5.80;57.70;;;;;;20760;6830;117334;-82
2022/01/23 05:41:43;;;;;;;23.67;16.60;;;5.80;57.50;;;;;;20755;6830;118309;-81
2022/01/23 05:44:09;;;;;;;28.50;20.30;;;5.60;57.80;;;;;;20549;6830;333322;-82
2022/01/23 05:46:35;;;;;;;26.63;20.20;;;5.60;57.90;;;;;;20533;6830;312513;-82
2022/01/23 05:49:01;;;;;;;25.73;19.67;;;6.20;56.50;;;;;;20557;6830;278148;-84
2022/01/23 05:51:26;;;;;;;25.50;16.60;;;6.20;56.50;;;;;;20768;6830;118105;-82
2022/01/23 05:53:52;;;;;;;21.87;15.47;;;6.10;56.10;;;;;;20774;6830;117492;-82
2022/01/23 05:56:18;;;;;;;24.63;15.13;;;5.80;56.60;;;;;;20776;6830;120225;-82
2022/01/23 05:58:44;;;;;;;21.47;15.67;;;5.40;57.60;;;;;;20753;6830;118912;-82
2022/01/23 06:01:10;;;;;;;25.23;18.60;;;5.30;57.60;;;;;;20562;6830;295541;-82
2022/01/23 06:03:36;;;;;;;27.50;20.37;;;5.80;57.40;;;;;;20559;6830;307528;-82
2022/01/23 06:06:01;;;;;;;28.85;20.08;;;5.80;57.40;;;;;;20550;6830;332395;-82
2022/01/23 06:08:27;;;;;;;26.30;19.60;;;6.00;56.60;;;;;;20535;6830;277985;-82
2022/01/23 06:10:59;;;;;;;22.43;16.07;;;6.30;56.00;;;;;;20722;6845;118014;-82
2022/01/23 06:13:24;;;;;;;23.57;19.17;;;6.10;55.80;;;;;;20526;6841;283107;-82
2022/01/23 06:15:50;;;;;;;23.80;15.83;;;6.10;56.20;;;;;;20718;6845;117397;-82
2022/01/23 06:18:15;;;;;;;24.27;17.87;;;5.90;56.10;;;;;;20524;6840;279013;-82
2022/01/23 06:20:42;;;;;;;20.43;14.47;;;5.90;56.40;;;;;;20731;6841;117398;-82
2022/01/23 06:23:08;;;;;;;19.13;13.77;;;5.80;56.30;;;;;;20732;6845;117777;-82
2022/01/23 06:25:35;;;;;;;20.07;13.73;;;5.60;56.80;;;;;;20736;6841;117419;-82
2022/01/23 06:28:00;;;;;;;19.60;13.93;;;5.40;57.30;;;;;;20725;6841;117955;-82
2022/01/23 06:30:26;;;;;;;23.55;17.98;;;5.20;57.70;;;;;;20487;6843;278476;-82
2022/01/23 06:32:51;;;;;;;22.57;18.30;;;5.40;58.20;;;;;;20514;6843;307348;-82
2022/01/23 06:35:17;;;;;;;23.23;18.60;;;5.70;57.60;;;;;;20512;6843;310235;-82
2022/01/23 06:37:44;;;;;;;18.97;15.00;;;6.00;56.70;;;;;;20727;6843;117205;-82
2022/01/23 06:40:10;;;;;;;20.60;14.40;;;6.00;56.70;;;;;;20733;6843;118396;-82
2022/01/23 06:42:36;;;;;;;20.67;14.13;;;5.80;57.10;;;;;;20731;6837;120409;-82
2022/01/23 06:45:02;;;;;;;20.23;13.63;;;5.40;58.20;;;;;;20760;6830;117541;-82
2022/01/23 06:47:28;;;;;;;23.90;18.47;;;5.30;57.70;;;;;;20563;6830;315873;-83
2022/01/23 06:49:53;;;;;;;19.20;14.47;;;5.50;57.90;;;;;;20771;6830;117821;-82
2022/01/23 06:52:19;;;;;;;22.10;17.50;;;5.50;57.50;;;;;;20572;6830;283549;-82
2022/01/23 06:54:45;;;;;;;23.40;17.60;;;6.00;57.50;;;;;;20541;6830;336761;-82
2022/01/23 06:57:11;;;;;;;18.97;15.17;;;6.00;56.80;;;;;;20778;6830;117437;-82
2022/01/23 06:59:37;;;;;;;21.00;13.97;;;5.70;56.70;;;;;;20775;6830;117565;-82
2022/01/23 07:02:03;;;;;;;22.03;18.10;;;5.70;56.70;;;;;;20548;6830;282251;-82
2022/01/23 07:04:28;;;;;;;19.17;14.27;;;5.80;57.00;;;;;;20752;6830;119211;-82
2022/01/23 07:06:54;;;;;;;19.02;14.45;;;5.70;56.70;;;;;;20765;6830;121451;-82
2022/01/23 07:09:19;;;;;;;22.67;17.90;;;5.50;57.00;;;;;;20558;6830;308853;-82
2022/01/23 07:11:45;;;;;;;22.35;15.60;;;5.70;57.40;;;;;;20775;6830;117459;-82
2022/01/23 07:14:11;;;;;;;24.43;18.07;;;5.80;57.10;;;;;;20561;6830;288657;-82
2022/01/23 07:16:37;;;;;;;24.47;18.80;;;5.70;57.00;;;;;;20537;6830;308286;-82
2022/01/23 07:19:02;;;;;;;21.63;18.07;;;6.00;56.40;;;;;;20567;6830;309287;-82
2022/01/23 07:21:28;;;;;;;19.00;15.07;;;6.30;55.90;;;;;;20761;6830;118484;-82
2022/01/23 07:23:53;;;;;;;18.73;14.45;;;6.20;55.80;;;;;;20786;6830;117360;-83
2022/01/23 07:26:21;;;;;;;20.40;13.93;;;5.90;56.20;;;;;;20774;6830;117894;-82
2022/01/23 07:28:46;;;;;;;22.13;18.12;;;5.70;56.70;;;;;;20533;6829;337131;-82
2022/01/23 07:31:20;;;;;;;19.87;15.20;;;5.70;56.90;;;;;;20773;6830;116335;-82
2022/01/23 07:33:38;;;;;;;23.70;18.93;;;5.80;56.80;;;;;;20533;6830;307634;-83
2022/01/23 07:36:04;;;;;;;23.75;19.55;;;6.10;56.30;;;;;;20564;6830;278875;-83
2022/01/23 07:38:30;;;;;;;21.27;15.90;;;6.10;56.30;;;;;;20748;6830;117993;-82
2022/01/23 07:40:55;;;;;;;21.80;18.50;;;6.00;56.00;;;;;;20512;6845;290325;-82
2022/01/23 07:43:21;;;;;;;20.67;15.23;;;6.10;56.30;;;;;;20732;6841;117365;-82
2022/01/23 07:45:46;;;;;;;19.73;15.13;;;6.00;56.20;;;;;;20724;6841;117463;-82
2022/01/23 07:48:13;;;;;;;24.60;17.10;;;5.80;56.50;;;;;;20731;6841;117382;-88
2022/01/23 07:50:38;;;;;;;49.00;36.90;;;5.60;56.90;;;;;;20691;6845;117909;-87
2022/01/23 07:53:05;;;;;;;24.23;15.93;;;5.30;57.50;;;;;;20731;6841;118194;-84
2022/01/23 07:55:30;;;;;;;19.60;14.07;;;5.30;57.50;;;;;;20704;6845;118591;-88
2022/01/23 07:58:02;;;;;;;21.07;14.40;;;5.20;57.70;;;;;;20729;6841;117381;-89
2022/01/23 08:00:22;;;;;;;22.67;18.20;;;5.10;58.00;;;;;;20471;6845;312367;-86
2022/01/23 08:02:47;;;;;;;77.80;49.00;;;5.30;58.60;;;;;;20728;6841;117681;-87
2022/01/23 08:05:13;;;;;;;32.22;25.83;;;5.40;58.20;;;;;;20517;6843;277834;-86
2022/01/23 08:07:38;;;;;;;29.80;23.00;;;5.60;58.30;;;;;;20536;6837;326287;-86
2022/01/23 08:10:04;;;;;;;24.40;20.27;;;5.90;57.50;;;;;;20550;6830;307177;-85
2022/01/23 08:12:29;;;;;;;25.62;19.27;;;6.20;56.70;;;;;;20530;6830;282585;-88
2022/01/23 08:14:55;;;;;;;22.97;19.47;;;6.50;55.80;;;;;;20552;6830;336844;-89
2022/01/23 08:17:24;;;;;;;40.25;28.35;;;6.70;55.40;;;;;;20504;6845;308262;-85
2022/01/23 08:19:46;;;;;;;59.10;40.57;;;6.80;54.80;;;;;;20504;6841;309204;-86
2022/01/23 08:22:12;;;;;;;52.77;31.30;;;6.90;54.50;;;;;;20709;6841;121780;-87
2022/01/23 08:24:37;;;;;;;61.53;36.80;;;6.70;54.50;;;;;;20743;6841;117664;-90
2022/01/23 08:27:03;;;;;;;245.73;116.82;;;6.40;55.10;;;;;;20746;6841;117571;-86
2022/01/23 08:29:28;;;;;;;327.83;237.03;;;6.10;55.90;;;;;;20528;6841;315526;-89
2022/01/23 08:31:54;;;;;;;55.47;41.55;;;6.20;56.60;;;;;;20531;6841;279205;-84
2022/01/23 08:34:21;;;;;;;32.50;25.35;;;6.40;56.20;;;;;;20520;6841;337569;-86
2022/01/23 08:36:46;;;;;;;26.33;20.33;;;6.60;55.70;;;;;;20519;6845;308715;-84
2022/01/23 08:39:15;;;;;;;23.47;17.17;;;6.80;55.40;;;;;;20741;6841;117429;-84
2022/01/23 08:41:51;;;;;;;20.77;16.03;;;6.70;55.20;;;;;;20729;6840;117235;-83
2022/01/23 08:44:20;;;;;;;23.87;18.80;;;6.40;55.80;;;;;;20520;6841;341432;-82
2022/01/23 08:46:46;;;;;;;22.67;16.53;;;6.40;56.20;;;;;;20722;6843;118174;-82
2022/01/23 08:49:12;;;;;;;19.37;14.50;;;6.20;56.40;;;;;;20727;6843;118060;-82
2022/01/23 08:51:38;;;;;;;23.23;15.70;;;6.10;56.30;;;;;;20727;6843;117271;-83
2022/01/23 08:54:03;;;;;;;19.70;14.27;;;6.00;56.70;;;;;;20741;6843;118495;-82
2022/01/23 08:56:29;;;;;;;21.17;16.57;;;5.70;57.50;;;;;;20719;6843;120281;-81
2022/01/23 08:58:55;;;;;;;20.17;15.33;;;5.70;57.50;;;;;;20727;6843;118723;-82
2022/01/23 09:01:21;;;;;;;20.73;14.67;;;5.70;57.80;;;;;;20732;6843;117868;-81
2022/01/23 09:03:46;;;;;;;20.27;14.75;;;5.60;58.00;;;;;;20735;6837;117699;-80
2022/01/23 09:06:12;;;;;;;22.87;16.55;;;5.50;58.40;;;;;;20768;6837;117658;-80
2022/01/23 09:08:40;;;;;;;20.30;14.47;;;5.50;58.40;;;;;;20743;6837;117437;-82
2022/01/23 09:11:09;;;;;;;23.17;19.25;;;5.50;58.50;;;;;;20529;6837;307555;-82
2022/01/23 09:16:11;;;;;;;27.27;21.70;;;5.90;58.10;;;;;;20764;6830;117816;-84
2022/01/23 09:18:37;;;;;;;21.60;17.62;;;5.80;58.50;;;;;;20750;6830;117483;-81
2022/01/23 09:21:03;;;;;;;23.53;19.23;;;5.70;58.30;;;;;;20562;6830;280960;-83
2022/01/23 09:23:29;;;;;;;26.00;23.05;;;6.00;58.70;;;;;;20550;6830;308074;-83
2022/01/23 09:25:57;;;;;;;19.20;16.27;;;6.40;57.70;;;;;;20763;6830;119043;-85
2022/01/23 09:28:22;;;;;;;25.83;20.47;;;6.50;57.20;;;;;;20573;6830;314051;-85
2022/01/23 09:30:49;;;;;;;24.30;19.13;;;6.60;57.10;;;;;;20564;6845;277815;-85
2022/01/23 09:33:11;;;;;;;23.95;18.20;;;6.90;56.90;;;;;;20794;6841;116553;-83
2022/01/23 09:35:36;;;;;;;25.87;21.20;;;6.90;56.60;;;;;;20589;6841;306930;-84
2022/01/23 09:38:02;;;;;;;26.77;20.83;;;6.90;56.40;;;;;;20531;6845;337461;-85
2022/01/23 09:40:29;;;;;;;20.27;16.97;;;7.20;56.00;;;;;;20722;6841;127640;-84
2022/01/23 09:43:01;;;;;;;23.43;18.97;;;7.10;55.70;;;;;;20553;6841;336458;-84
2022/01/23 09:45:27;;;;;;;55.63;42.93;;;7.20;56.00;;;;;;20723;6841;117453;-84
2022/01/23 09:47:53;;;;;;;33.87;30.27;;;7.20;56.10;;;;;;20496;6845;337797;-84
2022/01/23 09:50:19;;;;;;;22.17;16.70;;;7.20;56.10;;;;;;20729;6841;67950;-86
2022/01/23 09:52:45;;;;;;;22.80;19.13;;;7.30;56.00;;;;;;20500;6844;308770;-87
2022/01/23 09:55:11;;;;;;;22.07;18.07;;;7.30;56.00;;;;;;20536;6841;286309;-84
2022/01/23 09:57:37;;;;;;;20.65;18.45;;;7.60;55.20;;;;;;20519;6841;337581;-88
2022/01/23 10:00:03;;;;;;;17.60;15.40;;;7.80;54.50;;;;;;20719;6845;117452;-86
2022/01/23 10:02:29;;;;;;;21.37;17.30;;;7.70;54.40;;;;;;20708;6841;117861;-86
2022/01/23 10:04:54;;;;;;;27.67;24.60;;;7.50;55.00;;;;;;20536;6845;338092;-86
2022/01/23 10:07:21;;;;;;;27.90;24.03;;;7.60;55.20;;;;;;20564;6841;278074;-90
2022/01/23 10:09:52;;;;;;;22.27;19.97;;;7.80;54.60;;;;;;20555;6841;306955;-86
2022/01/23 10:12:13;;;;;;;20.77;18.10;;;8.10;53.90;;;;;;20503;6845;301259;-83
2022/01/23 10:14:39;;;;;;;16.73;14.60;;;8.30;53.30;;;;;;20705;6841;118303;-84
2022/01/23 10:17:09;;;;;;;17.73;15.20;;;8.20;53.30;;;;;;20711;6841;117744;-84
2022/01/23 10:19:33;;;;;;;19.85;17.15;;;7.90;53.80;;;;;;20516;6841;337409;-84
2022/01/23 10:22:00;;;;;;;18.83;16.93;;;8.00;53.90;;;;;;20509;6845;278908;-85
2022/01/23 10:24:24;;;;;;;17.40;15.03;;;8.20;53.50;;;;;;20703;6841;117885;-86
2022/01/23 10:26:53;;;;;;;17.23;15.50;;;8.10;53.40;;;;;;20518;6841;281529;-84
2022/01/23 10:29:20;;;;;;;17.25;15.55;;;8.20;53.60;;;;;;20499;6845;279088;-86
2022/01/23 10:32:01;;;;;;;16.40;14.70;;;8.40;52.70;;;;;;20509;6841;341685;-88
2022/01/23 10:34:39;;;;;;;18.93;17.03;;;8.50;51.90;;;;;;20471;6841;307652;-88
2022/01/23 10:37:05;;;;;;;19.33;17.42;;;8.70;51.90;;;;;;20486;6841;289041;-87
2022/01/23 10:39:45;;;;;;;18.93;17.03;;;8.80;51.80;;;;;;20514;6845;310109;-88
2022/01/23 10:42:26;;;;;;;17.97;16.13;;;8.90;51.70;;;;;;20518;6841;285639;-88
2022/01/23 10:47:43;;;;;;;15.80;14.20;;;9.00;50.70;;;;;;20733;6841;117298;-86
2022/01/23 10:49:58;;;;;;;17.87;15.97;;;8.70;51.00;;;;;;20702;6841;116443;-87
2022/01/23 10:52:38;;;;;;;14.67;13.13;;;8.40;51.70;;;;;;20698;6845;117504;-89
2022/01/23 10:55:03;;;;;;;18.00;13.70;;;7.90;52.80;;;;;;20698;6841;123527;-88
2022/01/23 10:57:35;;;;;;;24.67;19.73;;;7.90;52.80;;;;;;20657;6841;118855;-89
2022/01/23 11:00:05;;;;;;;19.23;14.73;;;7.60;53.60;;;;;;20645;6841;116777;-84
2022/01/23 11:02:27;;;;;;;18.17;16.48;;;7.60;53.60;;;;;;20476;6840;337106;-85
2022/01/23 11:04:56;;;;;;;15.80;14.20;;;7.70;53.70;;;;;;20733;6842;121422;-83
2022/01/23 11:07:21;;;;;;;16.35;14.75;;;7.80;53.50;;;;;;20507;6843;337681;-81
2022/01/23 11:09:47;;;;;;;17.08;15.48;;;8.00;52.90;;;;;;20509;6845;309141;-84
2022/01/23 11:12:21;;;;;;;15.20;13.57;;;8.20;52.10;;;;;;20726;6841;121082;-83
2022/01/23 11:17:24;;;;;;;18.55;16.75;;;8.00;52.40;;;;;;20520;6841;306685;-84
2022/01/23 11:19:49;;;;;;;17.57;15.13;;;8.00;52.40;;;;;;20731;6841;117728;-84
2022/01/23 11:22:18;;;;;;;15.80;13.60;;;7.90;52.70;;;;;;20713;6841;117910;-83
2022/01/23 11:24:45;;;;;;;16.00;14.30;;;7.80;52.60;;;;;;20690;6845;117974;-83
2022/01/23 11:27:09;;;;;;;18.02;16.17;;;7.70;53.00;;;;;;20518;6841;307688;-83
2022/01/23 11:29:35;;;;;;;18.90;17.10;;;7.80;53.00;;;;;;20522;6841;307688;-85
2022/01/23 11:32:00;;;;;;;16.83;15.03;;;8.10;52.90;;;;;;20722;6845;117529;-86
2022/01/23 11:34:26;;;;;;;18.52;16.70;;;8.20;52.80;;;;;;20515;6841;308312;-86
2022/01/23 11:36:51;;;;;;;14.33;13.13;;;8.30;52.60;;;;;;20502;6845;308211;-88
2022/01/23 11:40:08;;;;;;;16.00;14.40;;;8.50;51.80;;;;;;20720;6841;117704;-86
2022/01/23 11:56:33;;;;;;;17.63;16.13;;;7.90;52.20;;;;;;20518;6841;307857;-85
2022/01/23 11:59:13;;;;;;;18.50;16.73;;;8.30;51.00;;;;;;20475;6845;309095;-88
2022/01/23 12:01:39;;;;;;;16.55;15.07;;;8.50;50.20;;;;;;20509;6841;278154;-84
2022/01/23 12:04:15;;;;;;;28.07;22.00;;;8.70;49.90;;;;;;20712;6845;117524;-86
2022/01/23 12:06:32;;;;;;;18.45;16.65;;;8.60;50.00;;;;;;20461;6841;308918;-84
2022/01/23 12:09:11;;;;;;;18.58;16.75;;;8.50;50.20;;;;;;20697;6845;118183;-85
2022/01/23 12:11:53;;;;;;;18.27;16.57;;;8.50;50.40;;;;;;20519;6841;281404;-86
2022/01/23 12:16:53;;;;;;;13.73;12.53;;;8.40;50.80;;;;;;20731;6841;120466;-86
2022/01/23 12:19:19;;;;;;;14.10;12.77;;;8.20;51.10;;;;;;20716;6845;117736;-86
2022/01/23 12:21:45;;;;;;;14.93;13.10;;;8.00;51.50;;;;;;20727;6841;117418;-87
2022/01/23 12:24:12;;;;;;;12.63;11.43;;;7.90;51.90;;;;;;20715;6845;117327;-85
2022/01/23 12:26:35;;;;;;;17.87;16.27;;;7.80;52.10;;;;;;20488;6841;314693;-86
2022/01/23 12:29:14;;;;;;;15.47;14.10;;;8.00;51.60;;;;;;20508;6845;308661;-86
2022/01/23 12:31:40;;;;;;;14.13;12.73;;;8.40;50.90;;;;;;20729;6841;117416;-89
2022/01/23 12:34:05;;;;;;;14.77;13.27;;;8.40;50.60;;;;;;20723;6841;117469;-86
2022/01/23 12:36:31;;;;;;;21.40;19.50;;;8.30;50.50;;;;;;20487;6845;300533;-88
2022/01/23 12:38:57;;;;;;;16.62;15.10;;;8.30;50.40;;;;;;20529;6841;339533;-87
2022/01/23 12:41:27;;;;;;;17.08;15.48;;;8.60;50.00;;;;;;20443;6845;308330;-90
2022/01/23 12:43:59;;;;;;;16.83;15.43;;;8.80;49.50;;;;;;20490;6841;313971;-84
2022/01/23 12:46:24;;;;;;;16.97;15.47;;;9.00;49.70;;;;;;20483;6845;307439;-87
2022/01/23 12:48:51;;;;;;;16.48;15.07;;;9.30;48.50;;;;;;20502;6841;312361;-88
2022/01/23 12:51:20;;;;;;;11.57;10.43;;;9.30;48.50;;;;;;20698;6845;118750;-88
2022/01/23 12:53:45;;;;;;;11.23;10.17;;;9.20;48.70;;;;;;20755;6841;68221;-87
2022/01/23 12:56:18;;;;;;;10.87;9.87;;;8.60;49.60;;;;;;20727;6845;117116;-89
2022/01/23 12:58:50;;;;;;;11.97;11.07;;;8.50;49.50;;;;;;20492;6841;308530;-87
2022/01/23 13:01:19;;;;;;;12.95;11.85;;;8.60;48.10;;;;;;20474;6841;337633;-86
2022/01/23 13:03:54;;;;;;;13.63;12.53;;;8.80;47.70;;;;;;20507;6845;316611;-87
2022/01/23 13:06:33;;;;;;;10.70;9.90;;;9.00;48.30;;;;;;20522;6841;337329;-86
2022/01/23 13:09:21;;;;;;;9.77;8.97;;;9.30;46.90;;;;;;20722;6845;117691;-87
2022/01/23 13:11:56;;;;;;;13.27;12.18;;;9.10;47.20;;;;;;20499;6845;282423;-86
2022/01/23 13:14:27;;;;;;;13.50;12.40;;;9.10;47.00;;;;;;20520;6841;308146;-87
2022/01/23 13:17:24;;;;;;;10.90;10.00;;;9.20;47.40;;;;;;20678;6845;118942;-86
2022/01/23 13:19:59;;;;;;;12.03;10.83;;;9.10;47.60;;;;;;20677;6841;118051;-88
2022/01/23 13:30:18;;;;;;;10.37;9.27;;;8.40;47.60;;;;;;20740;6841;117578;-86
2022/01/23 13:32:46;;;;;;;9.30;8.40;;;8.20;48.10;;;;;;20693;6845;117727;-88
2022/01/23 13:35:12;;;;;;;9.80;9.10;;;8.00;48.40;;;;;;20521;6841;286607;-88
2022/01/23 13:37:36;;;;;;;11.67;10.77;;;8.40;46.80;;;;;;20490;6845;278493;-91
2022/01/23 13:40:07;;;;;;;13.68;12.57;;;8.70;47.80;;;;;;20512;6841;336702;-90
2022/01/23 13:48:01;;;;;;;11.67;10.57;;;8.70;47.30;;;;;;20697;6845;122093;-86
2022/01/23 13:59:13;;;;;;;8.57;7.97;;;7.90;46.30;;;;;;20557;6845;280189;-81
2022/01/23 14:01:50;;;;;;;5.37;4.97;;;8.10;44.20;;;;;;20757;6841;116145;-84
2022/01/23 14:04:02;;;;;;;6.77;6.27;;;8.10;44.40;;;;;;20519;6845;311871;-81
2022/01/23 14:06:27;;;;;;;6.27;5.87;;;8.20;43.30;;;;;;20528;6841;277792;-82
2022/01/23 14:09:06;;;;;;;7.62;7.03;;;8.50;42.60;;;;;;20523;6845;290710;-84
2022/01/23 14:11:32;;;;;;;7.87;7.27;;;8.90;42.50;;;;;;20523;6841;278499;-85
2022/01/23 14:14:15;;;;;;;7.73;7.13;;;8.70;42.80;;;;;;20704;6845;114426;-81
2022/01/23 14:16:40;;;;;;;9.07;8.37;;;8.70;42.80;;;;;;20507;6845;306618;-81
2022/01/23 14:19:15;;;;;;;8.30;7.65;;;8.70;43.10;;;;;;20524;6841;307123;-83
2022/01/23 14:21:41;;;;;;;7.17;6.60;;;8.90;42.80;;;;;;20736;6841;116148;-84
2022/01/23 14:24:06;;;;;;;7.03;6.33;;;8.70;43.10;;;;;;20772;6845;116842;-82
2022/01/23 14:26:32;;;;;;;9.20;8.50;;;8.40;43.70;;;;;;20543;6841;294000;-84
2022/01/23 14:28:58;;;;;;;20.12;18.12;;;8.40;43.00;;;;;;20540;6845;337287;-86
2022/01/23 14:31:25;;;;;;;8.07;7.37;;;8.60;43.30;;;;;;20698;6841;117411;-86
2022/01/23 14:34:07;;;;;;;8.00;7.40;;;8.40;43.40;;;;;;20524;6845;331352;-81
2022/01/23 14:36:32;;;;;;;7.77;6.97;;;8.40;42.50;;;;;;20637;6845;118889;-85
2022/01/23 14:39:04;;;;;;;12.13;11.18;;;8.20;42.90;;;;;;20555;6840;278189;-82
2022/01/23 14:41:30;;;;;;;13.60;12.33;;;8.20;43.40;;;;;;20769;6845;116488;-81
2022/01/23 14:43:55;;;;;;;13.57;12.30;;;8.10;43.70;;;;;;20548;6841;336239;-81
2022/01/23 14:46:23;;;;;;;8.88;8.07;;;8.10;44.40;;;;;;20777;6841;116440;-80
2022/01/23 14:48:50;;;;;;;7.13;6.63;;;8.10;44.60;;;;;;20780;6845;121114;-81
2022/01/23 14:51:18;;;;;;;16.17;14.50;;;7.80;44.80;;;;;;20778;6841;118883;-83
2022/01/23 14:53:41;;;;;;;6.03;5.53;;;7.60;45.20;;;;;;20740;6845;116948;-85
2022/01/23 14:56:07;;;;;;;11.05;10.30;;;7.30;45.40;;;;;;20531;6841;307610;-84
2022/01/23 14:58:34;;;;;;;7.68;7.18;;;7.50;45.80;;;;;;20501;6845;339113;-79
2022/01/23 15:00:59;;;;;;;8.80;8.10;;;7.80;45.10;;;;;;20746;6841;117206;-85
2022/01/23 15:03:31;;;;;;;8.27;7.57;;;7.60;45.30;;;;;;20725;6841;119573;-79
2022/01/23 15:05:56;;;;;;;7.53;6.93;;;7.60;45.30;;;;;;20714;6845;119135;-81
2022/01/23 15:08:24;;;;;;;6.55;6.15;;;7.30;45.60;;;;;;20508;6841;306695;-86
2022/01/23 15:10:48;;;;;;;7.03;6.53;;;7.50;44.90;;;;;;20748;6841;119727;-80
2022/01/23 15:13:13;;;;;;;5.25;4.95;;;7.40;44.80;;;;;;20734;6845;122915;-85
2022/01/23 15:15:39;;;;;;;6.43;6.03;;;7.30;45.20;;;;;;20494;6841;337407;-84
2022/01/23 15:18:05;;;;;;;7.70;7.10;;;7.40;45.30;;;;;;20726;6845;117284;-85
2022/01/23 15:20:33;;;;;;;8.70;8.10;;;7.40;45.30;;;;;;20526;6841;307429;-82
2022/01/23 15:22:56;;;;;;;7.80;7.30;;;7.50;45.10;;;;;;20753;6841;117764;-81
2022/01/23 15:25:22;;;;;;;8.10;7.50;;;7.50;45.20;;;;;;20763;6841;117056;-82
2022/01/23 15:27:47;;;;;;;7.07;6.55;;;7.40;45.50;;;;;;20751;6845;116522;-82
2022/01/23 15:30:13;;;;;;;10.25;9.45;;;7.20;45.70;;;;;;20548;6841;335768;-83
2022/01/23 15:32:38;;;;;;;9.57;8.77;;;7.30;45.80;;;;;;20731;6845;117431;-82
2022/01/23 15:35:04;;;;;;;10.27;9.57;;;7.30;45.80;;;;;;20552;6841;281878;-85
2022/01/23 15:37:31;;;;;;;9.43;8.73;;;7.50;45.90;;;;;;20538;6841;300318;-87